sensor_id;sensor_type;location;lat;lon;timestamp;temperature;humidity
15615;DHT22;7907;51.368;6.730;2023-05-07T15:25:10;21.50;99.90
15615;DHT22;7907;51.368;6.730;2023-05-07T15:27:39;21.40;99.90
15615;DHT22;7907;51.368;6.730;2023-05-07T15:30:13;21.40;99.90
15615;DHT22;7907;51.368;6.730;2023-05-07T15:32:49;21.40;99.90
15615;DHT22;7907;51.368;6.730;2023-05-07T15:35:20;21.40;99.90
15615;DHT22;7907;51.368;6.730;2023-05-07T15:38:01;21.30;99.90
15615;DHT22;7907;51.368;6.730;2023-05-07T15:43:15;21.30;99.90
15615;DHT22;7907;51.368;6.730;2023-05-07T15:45:54;21.30;99.90
15615;DHT22;7907;51.368;6.730;2023-05-07T15:48:26;21.30;99.90
15615;DHT22;7907;51.368;6.730;2023-05-07T15:50:54;21.30;99.90
15615;DHT22;7907;51.368;6.730;2023-05-07T15:53:25;21.30;99.90
15615;DHT22;7907;51.368;6.730;2023-05-07T15:55:56;21.30;99.90
15615;DHT22;7907;51.368;6.730;2023-05-07T16:05:16;21.30;99.90
15615;DHT22;7907;51.368;6.730;2023-05-07T16:07:22;21.30;99.90
15615;DHT22;7907;51.368;6.730;2023-05-07T16:09:51;21.30;99.90
15615;DHT22;7907;51.368;6.730;2023-05-07T16:12:39;21.30;99.90
15615;DHT22;7907;51.368;6.730;2023-05-07T16:15:15;21.30;99.90
15615;DHT22;7907;51.368;6.730;2023-05-07T16:20:46;21.20;99.90
15615;DHT22;7907;51.368;6.730;2023-05-07T16:23:19;21.20;99.90
15615;DHT22;7907;51.368;6.730;2023-05-07T16:25:49;21.20;99.90
15615;DHT22;7907;51.368;6.730;2023-05-07T16:28:21;21.20;99.90
15615;DHT22;7907;51.368;6.730;2023-05-07T16:30:50;21.20;99.90
15615;DHT22;7907;51.368;6.730;2023-05-07T16:33:27;21.10;99.90
15615;DHT22;7907;51.368;6.730;2023-05-07T16:35:58;21.10;99.90
15615;DHT22;7907;51.368;6.730;2023-05-07T16:38:26;21.10;99.90
15615;DHT22;7907;51.368;6.730;2023-05-07T16:40:59;21.10;99.90
15615;DHT22;7907;51.368;6.730;2023-05-07T16:43:27;21.20;99.90
15615;DHT22;7907;51.368;6.730;2023-05-07T16:46:39;21.20;99.90
15615;DHT22;7907;51.368;6.730;2023-05-07T16:49:27;21.20;99.90
15615;DHT22;7907;51.368;6.730;2023-05-07T16:52:03;21.20;99.90
15615;DHT22;7907;51.368;6.730;2023-05-07T17:06:27;21.30;99.90
15615;DHT22;7907;51.368;6.730;2023-05-07T17:27:13;21.20;99.90
15615;DHT22;7907;51.368;6.730;2023-05-07T17:29:57;21.10;99.90
15615;DHT22;7907;51.368;6.730;2023-05-07T17:32:39;21.10;99.90
15615;DHT22;7907;51.368;6.730;2023-05-07T17:35:15;21.10;99.90
15615;DHT22;7907;51.368;6.730;2023-05-07T17:37:49;21.00;99.90
15615;DHT22;7907;51.368;6.730;2023-05-07T17:40:17;21.00;99.90
15615;DHT22;7907;51.368;6.730;2023-05-07T17:42:52;20.90;99.90
15615;DHT22;7907;51.368;6.730;2023-05-07T17:45:47;20.80;99.90
15615;DHT22;7907;51.368;6.730;2023-05-07T17:48:24;20.80;99.90
15615;DHT22;7907;51.368;6.730;2023-05-07T17:50:57;20.70;99.90
15615;DHT22;7907;51.368;6.730;2023-05-07T17:53:31;20.60;99.90
15615;DHT22;7907;51.368;6.730;2023-05-07T17:55:58;20.50;99.90
15615;DHT22;7907;51.368;6.730;2023-05-07T17:58:32;20.50;99.90
15615;DHT22;7907;51.368;6.730;2023-05-07T18:01:04;20.50;99.90
15615;DHT22;7907;51.368;6.730;2023-05-07T18:03:41;20.40;99.90
15615;DHT22;7907;51.368;6.730;2023-05-07T18:06:18;20.30;99.90
15615;DHT22;7907;51.368;6.730;2023-05-07T18:09:24;20.20;99.90
15615;DHT22;7907;51.368;6.730;2023-05-07T18:11:52;20.10;99.90
15615;DHT22;7907;51.368;6.730;2023-05-07T18:14:21;19.90;99.90
15615;DHT22;7907;51.368;6.730;2023-05-07T18:16:50;19.90;99.90
15615;DHT22;7907;51.368;6.730;2023-05-07T18:19:24;19.80;99.90
15615;DHT22;7907;51.368;6.730;2023-05-07T18:21:52;19.80;99.90
15615;DHT22;7907;51.368;6.730;2023-05-07T18:24:26;19.70;99.90
15615;DHT22;7907;51.368;6.730;2023-05-07T18:26:57;19.60;99.90
15615;DHT22;7907;51.368;6.730;2023-05-07T18:29:25;19.60;99.90
15615;DHT22;7907;51.368;6.730;2023-05-07T18:31:56;19.50;99.90
15615;DHT22;7907;51.368;6.730;2023-05-07T18:34:34;19.50;99.90
15615;DHT22;7907;51.368;6.730;2023-05-07T18:39:57;19.40;99.90
15615;DHT22;7907;51.368;6.730;2023-05-07T18:42:46;19.40;99.90
